sensor_id;sensor_type;location;lat;lon;timestamp;P1;durP1;ratioP1;P2;durP2;ratioP2
40198;SDS011;25906;43.536;26.068;2022-09-09T00:00:33;2.95;;;2.53;;
40198;SDS011;25906;43.536;26.068;2022-09-09T00:03:26;2.67;;;2.40;;
40198;SDS011;25906;43.536;26.068;2022-09-09T00:06:26;2.65;;;2.20;;
40198;SDS011;25906;43.536;26.068;2022-09-09T00:09:19;4.13;;;2.38;;
40198;SDS011;25906;43.536;26.068;2022-09-09T00:12:12;3.90;;;2.50;;
40198;SDS011;25906;43.536;26.068;2022-09-09T00:15:02;3.80;;;2.30;;
40198;SDS011;25906;43.536;26.068;2022-09-09T00:24:00;4.50;;;2.67;;
40198;SDS011;25906;43.536;26.068;2022-09-09T00:26:57;4.05;;;2.47;;
40198;SDS011;25906;43.536;26.068;2022-09-09T00:29:53;4.60;;;2.70;;
40198;SDS011;25906;43.536;26.068;2022-09-09T00:32:42;3.13;;;2.65;;
40198;SDS011;25906;43.536;26.068;2022-09-09T00:35:29;4.57;;;2.35;;
40198;SDS011;25906;43.536;26.068;2022-09-09T00:38:51;4.20;;;2.67;;
40198;SDS011;25906;43.536;26.068;2022-09-09T00:41:48;3.97;;;2.78;;
40198;SDS011;25906;43.536;26.068;2022-09-09T00:44:37;4.15;;;2.38;;
40198;SDS011;25906;43.536;26.068;2022-09-09T00:47:32;3.20;;;2.65;;
40198;SDS011;25906;43.536;26.068;2022-09-09T00:50:34;3.90;;;2.33;;
40198;SDS011;25906;43.536;26.068;2022-09-09T00:53:32;4.50;;;2.20;;
40198;SDS011;25906;43.536;26.068;2022-09-09T00:56:47;2.95;;;2.40;;
40198;SDS011;25906;43.536;26.068;2022-09-09T01:02:43;2.50;;;2.30;;
40198;SDS011;25906;43.536;26.068;2022-09-09T01:11:26;2.97;;;2.47;;
40198;SDS011;25906;43.536;26.068;2022-09-09T01:17:26;3.47;;;2.25;;
40198;SDS011;25906;43.536;26.068;2022-09-09T01:26:41;3.78;;;2.38;;
40198;SDS011;25906;43.536;26.068;2022-09-09T01:29:26;3.53;;;2.47;;
40198;SDS011;25906;43.536;26.068;2022-09-09T01:38:17;6.78;;;2.88;;
40198;SDS011;25906;43.536;26.068;2022-09-09T01:41:03;4.45;;;2.50;;
40198;SDS011;25906;43.536;26.068;2022-09-09T01:43:49;3.33;;;2.40;;
40198;SDS011;25906;43.536;26.068;2022-09-09T01:46:36;4.03;;;2.50;;
40198;SDS011;25906;43.536;26.068;2022-09-09T01:49:22;3.20;;;2.33;;
40198;SDS011;25906;43.536;26.068;2022-09-09T01:54:54;3.08;;;2.33;;
40198;SDS011;25906;43.536;26.068;2022-09-09T01:57:50;3.95;;;2.70;;
40198;SDS011;25906;43.536;26.068;2022-09-09T02:00:39;5.13;;;2.65;;
40198;SDS011;25906;43.536;26.068;2022-09-09T02:03:31;2.88;;;2.47;;
40198;SDS011;25906;43.536;26.068;2022-09-09T02:06:26;4.10;;;2.25;;
40198;SDS011;25906;43.536;26.068;2022-09-09T02:09:15;3.00;;;2.58;;
40198;SDS011;25906;43.536;26.068;2022-09-09T02:12:13;2.40;;;2.20;;
40198;SDS011;25906;43.536;26.068;2022-09-09T02:15:03;3.80;;;2.90;;
40198;SDS011;25906;43.536;26.068;2022-09-09T02:17:54;2.92;;;2.63;;
40198;SDS011;25906;43.536;26.068;2022-09-09T02:20:43;2.50;;;2.13;;
40198;SDS011;25906;43.536;26.068;2022-09-09T02:23:30;4.68;;;2.70;;
40198;SDS011;25906;43.536;26.068;2022-09-09T02:26:17;3.33;;;2.38;;
40198;SDS011;25906;43.536;26.068;2022-09-09T02:29:08;4.63;;;2.88;;
40198;SDS011;25906;43.536;26.068;2022-09-09T02:32:01;3.55;;;2.42;;
40198;SDS011;25906;43.536;26.068;2022-09-09T02:34:55;3.05;;;2.40;;
40198;SDS011;25906;43.536;26.068;2022-09-09T02:37:45;3.50;;;2.45;;
40198;SDS011;25906;43.536;26.068;2022-09-09T02:43:17;6.95;;;2.58;;
40198;SDS011;25906;43.536;26.068;2022-09-09T02:52:38;3.40;;;2.15;;
40198;SDS011;25906;43.536;26.068;2022-09-09T02:55:50;7.78;;;2.47;;
40198;SDS011;25906;43.536;26.068;2022-09-09T02:58:41;3.22;;;2.35;;
40198;SDS011;25906;43.536;26.068;2022-09-09T03:01:27;3.67;;;2.70;;
40198;SDS011;25906;43.536;26.068;2022-09-09T03:04:13;3.40;;;2.65;;
40198;SDS011;25906;43.536;26.068;2022-09-09T03:09:44;5.85;;;2.50;;
40198;SDS011;25906;43.536;26.068;2022-09-09T03:12:30;3.72;;;2.45;;
40198;SDS011;25906;43.536;26.068;2022-09-09T03:15:18;3.80;;;2.47;;
40198;SDS011;25906;43.536;26.068;2022-09-09T03:18:04;3.45;;;2.30;;
40198;SDS011;25906;43.536;26.068;2022-09-09T03:20:49;6.43;;;2.33;;
40198;SDS011;25906;43.536;26.068;2022-09-09T03:23:36;2.55;;;2.15;;
40198;SDS011;25906;43.536;26.068;2022-09-09T03:26:21;3.22;;;2.47;;
40198;SDS011;25906;43.536;26.068;2022-09-09T03:29:13;4.15;;;2.28;;
40198;SDS011;25906;43.536;26.068;2022-09-09T03:31:59;4.55;;;2.40;;
40198;SDS011;25906;43.536;26.068;2022-09-09T03:34:45;7.07;;;2.70;;
40198;SDS011;25906;43.536;26.068;2022-09-09T03:37:32;3.50;;;2.47;;
40198;SDS011;25906;43.536;26.068;2022-09-09T03:40:18;5.70;;;2.80;;
40198;SDS011;25906;43.536;26.068;2022-09-09T03:43:05;4.13;;;2.55;;
40198;SDS011;25906;43.536;26.068;2022-09-09T03:45:50;5.03;;;2.67;;
40198;SDS011;25906;43.536;26.068;2022-09-09T03:51:21;7.20;;;2.67;;
40198;SDS011;25906;43.536;26.068;2022-09-09T03:54:07;4.82;;;2.60;;
40198;SDS011;25906;43.536;26.068;2022-09-09T03:56:55;3.03;;;2.53;;
40198;SDS011;25906;43.536;26.068;2022-09-09T03:59:40;2.80;;;2.17;;
40198;SDS011;25906;43.536;26.068;2022-09-09T04:02:26;2.67;;;2.13;;
40198;SDS011;25906;43.536;26.068;2022-09-09T04:05:11;5.78;;;2.35;;
40198;SDS011;25906;43.536;26.068;2022-09-09T04:07:59;2.85;;;2.30;;
40198;SDS011;25906;43.536;26.068;2022-09-09T04:10:46;3.55;;;2.20;;
40198;SDS011;25906;43.536;26.068;2022-09-09T04:13:33;2.95;;;2.30;;
40198;SDS011;25906;43.536;26.068;2022-09-09T04:16:19;2.88;;;2.40;;
40198;SDS011;25906;43.536;26.068;2022-09-09T04:19:05;3.28;;;2.50;;
40198;SDS011;25906;43.536;26.068;2022-09-09T04:21:52;4.95;;;2.72;;
40198;SDS011;25906;43.536;26.068;2022-09-09T04:24:38;4.13;;;2.60;;
40198;SDS011;25906;43.536;26.068;2022-09-09T04:27:24;3.35;;;2.15;;
40198;SDS011;25906;43.536;26.068;2022-09-09T04:30:09;3.03;;;2.40;;
40198;SDS011;25906;43.536;26.068;2022-09-09T04:32:56;3.17;;;2.50;;
40198;SDS011;25906;43.536;26.068;2022-09-09T04:35:45;6.38;;;2.55;;
40198;SDS011;25906;43.536;26.068;2022-09-09T04:38:32;4.97;;;2.50;;
40198;SDS011;25906;43.536;26.068;2022-09-09T04:41:18;4.22;;;2.30;;
40198;SDS011;25906;43.536;26.068;2022-09-09T04:44:03;5.60;;;2.33;;
40198;SDS011;25906;43.536;26.068;2022-09-09T04:46:49;4.63;;;2.75;;
40198;SDS011;25906;43.536;26.068;2022-09-09T04:49:35;3.53;;;2.55;;
40198;SDS011;25906;43.536;26.068;2022-09-09T04:52:21;2.50;;;2.30;;
40198;SDS011;25906;43.536;26.068;2022-09-09T04:55:07;6.25;;;2.42;;
40198;SDS011;25906;43.536;26.068;2022-09-09T05:00:39;3.95;;;2.50;;
40198;SDS011;25906;43.536;26.068;2022-09-09T05:03:24;2.92;;;2.22;;
40198;SDS011;25906;43.536;26.068;2022-09-09T05:06:10;3.30;;;2.03;;
40198;SDS011;25906;43.536;26.068;2022-09-09T05:08:58;3.13;;;2.10;;
40198;SDS011;25906;43.536;26.068;2022-09-09T05:11:44;2.38;;;2.05;;
40198;SDS011;25906;43.536;26.068;2022-09-09T05:14:29;6.00;;;2.70;;
40198;SDS011;25906;43.536;26.068;2022-09-09T05:17:15;3.50;;;2.38;;
40198;SDS011;25906;43.536;26.068;2022-09-09T05:20:01;2.20;;;2.00;;
40198;SDS011;25906;43.536;26.068;2022-09-09T05:22:48;3.20;;;2.33;;
40198;SDS011;25906;43.536;26.068;2022-09-09T05:25:37;3.40;;;2.15;;
40198;SDS011;25906;43.536;26.068;2022-09-09T05:28:26;5.30;;;2.40;;
40198;SDS011;25906;43.536;26.068;2022-09-09T05:31:13;3.38;;;2.35;;
40198;SDS011;25906;43.536;26.068;2022-09-09T05:34:01;3.45;;;2.42;;
40198;SDS011;25906;43.536;26.068;2022-09-09T05:36:46;4.30;;;2.20;;
40198;SDS011;25906;43.536;26.068;2022-09-09T05:42:18;4.32;;;2.55;;
40198;SDS011;25906;43.536;26.068;2022-09-09T05:47:51;5.03;;;2.60;;
40198;SDS011;25906;43.536;26.068;2022-09-09T05:50:38;3.17;;;2.35;;
40198;SDS011;25906;43.536;26.068;2022-09-09T05:53:24;8.00;;;3.03;;
40198;SDS011;25906;43.536;26.068;2022-09-09T05:56:11;2.97;;;2.35;;
40198;SDS011;25906;43.536;26.068;2022-09-09T05:59:01;2.53;;;2.17;;
40198;SDS011;25906;43.536;26.068;2022-09-09T06:01:46;3.45;;;2.28;;
40198;SDS011;25906;43.536;26.068;2022-09-09T06:07:18;2.83;;;2.40;;
40198;SDS011;25906;43.536;26.068;2022-09-09T06:10:05;2.20;;;2.00;;
40198;SDS011;25906;43.536;26.068;2022-09-09T06:12:52;2.65;;;2.25;;
40198;SDS011;25906;43.536;26.068;2022-09-09T06:15:38;3.55;;;2.22;;
40198;SDS011;25906;43.536;26.068;2022-09-09T06:18:23;5.00;;;2.50;;
40198;SDS011;25906;43.536;26.068;2022-09-09T06:21:30;4.40;;;2.33;;
40198;SDS011;25906;43.536;26.068;2022-09-09T06:24:17;3.08;;;2.22;;
40198;SDS011;25906;43.536;26.068;2022-09-09T06:27:04;5.38;;;2.35;;
40198;SDS011;25906;43.536;26.068;2022-09-09T06:29:50;3.72;;;2.10;;
40198;SDS011;25906;43.536;26.068;2022-09-09T06:32:36;6.47;;;2.05;;
40198;SDS011;25906;43.536;26.068;2022-09-09T06:35:22;2.50;;;2.20;;
40198;SDS011;25906;43.536;26.068;2022-09-09T06:38:08;4.63;;;2.40;;
40198;SDS011;25906;43.536;26.068;2022-09-09T06:40:54;4.88;;;2.30;;
40198;SDS011;25906;43.536;26.068;2022-09-09T06:43:41;5.05;;;2.35;;
40198;SDS011;25906;43.536;26.068;2022-09-09T06:46:27;2.97;;;2.30;;
40198;SDS011;25906;43.536;26.068;2022-09-09T06:49:15;5.05;;;2.63;;
40198;SDS011;25906;43.536;26.068;2022-09-09T06:52:00;2.83;;;2.47;;
40198;SDS011;25906;43.536;26.068;2022-09-09T06:54:46;4.10;;;2.53;;
40198;SDS011;25906;43.536;26.068;2022-09-09T06:57:32;2.80;;;2.40;;
40198;SDS011;25906;43.536;26.068;2022-09-09T07:00:17;2.90;;;2.33;;
40198;SDS011;25906;43.536;26.068;2022-09-09T07:03:03;7.10;;;2.28;;
40198;SDS011;25906;43.536;26.068;2022-09-09T07:05:55;3.75;;;2.45;;
40198;SDS011;25906;43.536;26.068;2022-09-09T07:08:41;6.00;;;2.50;;
40198;SDS011;25906;43.536;26.068;2022-09-09T07:11:28;2.88;;;2.33;;
40198;SDS011;25906;43.536;26.068;2022-09-09T07:14:15;6.60;;;2.33;;
40198;SDS011;25906;43.536;26.068;2022-09-09T07:17:02;2.97;;;2.15;;
40198;SDS011;25906;43.536;26.068;2022-09-09T07:19:47;5.47;;;2.28;;
40198;SDS011;25906;43.536;26.068;2022-09-09T07:22:33;5.00;;;2.47;;
40198;SDS011;25906;43.536;26.068;2022-09-09T07:25:18;4.07;;;2.90;;
40198;SDS011;25906;43.536;26.068;2022-09-09T07:28:05;3.95;;;2.40;;
40198;SDS011;25906;43.536;26.068;2022-09-09T07:31:01;3.42;;;2.65;;
40198;SDS011;25906;43.536;26.068;2022-09-09T07:33:49;3.95;;;2.58;;
40198;SDS011;25906;43.536;26.068;2022-09-09T07:36:36;4.82;;;2.70;;
40198;SDS011;25906;43.536;26.068;2022-09-09T07:39:23;2.83;;;2.40;;
40198;SDS011;25906;43.536;26.068;2022-09-09T07:42:09;4.30;;;2.80;;
40198;SDS011;25906;43.536;26.068;2022-09-09T07:44:56;5.30;;;2.30;;
40198;SDS011;25906;43.536;26.068;2022-09-09T07:47:41;5.15;;;2.75;;
40198;SDS011;25906;43.536;26.068;2022-09-09T07:50:27;4.65;;;2.67;;
40198;SDS011;25906;43.536;26.068;2022-09-09T07:53:13;10.30;;;5.57;;
40198;SDS011;25906;43.536;26.068;2022-09-09T07:56:03;10.23;;;5.07;;
40198;SDS011;25906;43.536;26.068;2022-09-09T07:58:50;15.80;;;7.95;;
40198;SDS011;25906;43.536;26.068;2022-09-09T08:01:41;15.48;;;7.57;;
40198;SDS011;25906;43.536;26.068;2022-09-09T08:04:28;15.00;;;5.78;;
40198;SDS011;25906;43.536;26.068;2022-09-09T08:07:14;10.98;;;5.72;;
40198;SDS011;25906;43.536;26.068;2022-09-09T08:10:02;13.75;;;6.40;;
40198;SDS011;25906;43.536;26.068;2022-09-09T08:12:48;13.38;;;6.90;;
40198;SDS011;25906;43.536;26.068;2022-09-09T08:18:19;10.13;;;4.82;;
40198;SDS011;25906;43.536;26.068;2022-09-09T08:21:05;10.07;;;4.28;;
40198;SDS011;25906;43.536;26.068;2022-09-09T08:23:52;6.95;;;3.08;;
40198;SDS011;25906;43.536;26.068;2022-09-09T08:26:39;18.27;;;3.50;;
40198;SDS011;25906;43.536;26.068;2022-09-09T08:29:27;11.52;;;2.78;;
40198;SDS011;25906;43.536;26.068;2022-09-09T08:32:13;4.97;;;2.75;;
40198;SDS011;25906;43.536;26.068;2022-09-09T08:37:44;5.70;;;2.70;;
40198;SDS011;25906;43.536;26.068;2022-09-09T08:40:31;4.63;;;3.45;;
40198;SDS011;25906;43.536;26.068;2022-09-09T08:43:22;9.15;;;2.97;;
40198;SDS011;25906;43.536;26.068;2022-09-09T08:46:10;3.80;;;2.97;;
40198;SDS011;25906;43.536;26.068;2022-09-09T08:49:15;3.28;;;2.90;;
40198;SDS011;25906;43.536;26.068;2022-09-09T08:52:25;4.55;;;2.72;;
40198;SDS011;25906;43.536;26.068;2022-09-09T08:58:13;4.22;;;2.70;;
40198;SDS011;25906;43.536;26.068;2022-09-09T09:13:40;4.40;;;3.47;;
40198;SDS011;25906;43.536;26.068;2022-09-09T09:16:53;4.28;;;3.05;;
40198;SDS011;25906;43.536;26.068;2022-09-09T09:19:43;3.90;;;2.88;;
40198;SDS011;25906;43.536;26.068;2022-09-09T09:22:36;4.72;;;2.67;;
40198;SDS011;25906;43.536;26.068;2022-09-09T09:25:33;6.70;;;2.70;;
40198;SDS011;25906;43.536;26.068;2022-09-09T09:28:24;5.80;;;3.03;;
40198;SDS011;25906;43.536;26.068;2022-09-09T09:31:12;10.10;;;3.13;;
40198;SDS011;25906;43.536;26.068;2022-09-09T09:33:58;4.18;;;2.60;;
40198;SDS011;25906;43.536;26.068;2022-09-09T09:36:46;3.38;;;2.90;;
40198;SDS011;25906;43.536;26.068;2022-09-09T09:39:38;4.00;;;2.90;;
40198;SDS011;25906;43.536;26.068;2022-09-09T09:42:24;6.13;;;2.58;;
40198;SDS011;25906;43.536;26.068;2022-09-09T09:45:53;5.68;;;2.85;;
40198;SDS011;25906;43.536;26.068;2022-09-09T09:48:29;3.45;;;2.53;;
40198;SDS011;25906;43.536;26.068;2022-09-09T09:51:15;4.22;;;2.85;;
40198;SDS011;25906;43.536;26.068;2022-09-09T09:54:07;4.82;;;3.15;;
40198;SDS011;25906;43.536;26.068;2022-09-09T09:56:54;8.52;;;2.83;;
40198;SDS011;25906;43.536;26.068;2022-09-09T09:59:40;4.80;;;3.28;;
40198;SDS011;25906;43.536;26.068;2022-09-09T10:02:31;6.20;;;3.20;;
40198;SDS011;25906;43.536;26.068;2022-09-09T10:05:30;3.65;;;2.97;;
40198;SDS011;25906;43.536;26.068;2022-09-09T10:08:16;11.13;;;3.05;;
40198;SDS011;25906;43.536;26.068;2022-09-09T10:14:11;3.90;;;2.80;;
40198;SDS011;25906;43.536;26.068;2022-09-09T10:20:12;4.68;;;3.05;;
40198;SDS011;25906;43.536;26.068;2022-09-09T10:35:27;4.88;;;2.72;;
40198;SDS011;25906;43.536;26.068;2022-09-09T10:38:16;4.28;;;2.92;;
40198;SDS011;25906;43.536;26.068;2022-09-09T10:57:08;3.65;;;3.28;;
40198;SDS011;25906;43.536;26.068;2022-09-09T11:00:03;4.82;;;3.00;;
40198;SDS011;25906;43.536;26.068;2022-09-09T11:03:01;3.45;;;2.90;;
40198;SDS011;25906;43.536;26.068;2022-09-09T11:05:51;3.67;;;2.97;;
40198;SDS011;25906;43.536;26.068;2022-09-09T11:08:42;3.83;;;3.25;;
40198;SDS011;25906;43.536;26.068;2022-09-09T11:11:46;5.57;;;3.13;;
40198;SDS011;25906;43.536;26.068;2022-09-09T11:14:43;6.82;;;3.25;;
40198;SDS011;25906;43.536;26.068;2022-09-09T11:17:35;6.28;;;2.95;;
40198;SDS011;25906;43.536;26.068;2022-09-09T11:20:26;3.17;;;2.88;;
40198;SDS011;25906;43.536;26.068;2022-09-09T11:23:13;10.18;;;3.10;;
40198;SDS011;25906;43.536;26.068;2022-09-09T11:26:03;4.28;;;3.22;;
40198;SDS011;25906;43.536;26.068;2022-09-09T11:28:59;23.52;;;4.32;;
40198;SDS011;25906;43.536;26.068;2022-09-09T11:32:08;6.50;;;3.30;;
40198;SDS011;25906;43.536;26.068;2022-09-09T11:35:01;3.95;;;3.13;;
40198;SDS011;25906;43.536;26.068;2022-09-09T11:38:02;4.32;;;3.20;;
40198;SDS011;25906;43.536;26.068;2022-09-09T11:41:11;4.88;;;3.17;;
40198;SDS011;25906;43.536;26.068;2022-09-09T11:43:58;5.95;;;3.10;;
40198;SDS011;25906;43.536;26.068;2022-09-09T11:46:44;4.45;;;2.90;;
40198;SDS011;25906;43.536;26.068;2022-09-09T11:49:40;3.55;;;2.95;;
40198;SDS011;25906;43.536;26.068;2022-09-09T11:52:37;18.20;;;3.20;;
40198;SDS011;25906;43.536;26.068;2022-09-09T11:55:25;3.97;;;3.30;;
40198;SDS011;25906;43.536;26.068;2022-09-09T12:00:58;5.97;;;3.08;;
40198;SDS011;25906;43.536;26.068;2022-09-09T12:03:48;8.82;;;3.42;;
40198;SDS011;25906;43.536;26.068;2022-09-09T12:06:54;8.50;;;3.28;;
40198;SDS011;25906;43.536;26.068;2022-09-09T12:09:50;12.32;;;3.20;;
40198;SDS011;25906;43.536;26.068;2022-09-09T12:12:41;5.20;;;3.90;;
40198;SDS011;25906;43.536;26.068;2022-09-09T12:15:27;7.72;;;3.70;;
40198;SDS011;25906;43.536;26.068;2022-09-09T12:18:15;12.98;;;3.33;;
40198;SDS011;25906;43.536;26.068;2022-09-09T12:30:16;4.40;;;3.67;;
40198;SDS011;25906;43.536;26.068;2022-09-09T12:33:08;9.48;;;3.63;;
40198;SDS011;25906;43.536;26.068;2022-09-09T12:35:57;10.27;;;3.47;;
40198;SDS011;25906;43.536;26.068;2022-09-09T12:38:45;5.38;;;3.50;;
40198;SDS011;25906;43.536;26.068;2022-09-09T12:41:31;4.95;;;3.30;;
40198;SDS011;25906;43.536;26.068;2022-09-09T12:44:17;4.18;;;3.53;;
40198;SDS011;25906;43.536;26.068;2022-09-09T12:47:03;9.27;;;3.80;;
40198;SDS011;25906;43.536;26.068;2022-09-09T12:49:49;14.80;;;3.80;;
40198;SDS011;25906;43.536;26.068;2022-09-09T12:52:36;5.35;;;3.13;;
40198;SDS011;25906;43.536;26.068;2022-09-09T12:55:24;5.40;;;3.10;;
40198;SDS011;25906;43.536;26.068;2022-09-09T12:58:15;4.80;;;3.75;;
40198;SDS011;25906;43.536;26.068;2022-09-09T13:01:04;7.68;;;4.30;;
40198;SDS011;25906;43.536;26.068;2022-09-09T13:03:50;10.80;;;4.20;;
40198;SDS011;25906;43.536;26.068;2022-09-09T13:06:37;4.07;;;3.08;;
40198;SDS011;25906;43.536;26.068;2022-09-09T13:09:23;4.72;;;3.53;;
40198;SDS011;25906;43.536;26.068;2022-09-09T13:12:19;12.65;;;4.50;;
40198;SDS011;25906;43.536;26.068;2022-09-09T13:15:13;5.85;;;3.40;;
40198;SDS011;25906;43.536;26.068;2022-09-09T13:18:24;6.55;;;3.80;;
40198;SDS011;25906;43.536;26.068;2022-09-09T13:21:16;6.57;;;4.05;;
40198;SDS011;25906;43.536;26.068;2022-09-09T13:24:27;6.00;;;3.53;;
40198;SDS011;25906;43.536;26.068;2022-09-09T13:31:04;7.43;;;3.17;;
40198;SDS011;25906;43.536;26.068;2022-09-09T13:33:52;4.60;;;3.50;;
40198;SDS011;25906;43.536;26.068;2022-09-09T13:36:38;7.60;;;4.07;;
40198;SDS011;25906;43.536;26.068;2022-09-09T13:39:26;9.48;;;4.00;;
40198;SDS011;25906;43.536;26.068;2022-09-09T13:42:20;12.57;;;3.72;;
40198;SDS011;25906;43.536;26.068;2022-09-09T13:45:20;3.95;;;3.45;;
40198;SDS011;25906;43.536;26.068;2022-09-09T13:48:08;4.25;;;3.30;;
40198;SDS011;25906;43.536;26.068;2022-09-09T13:50:56;5.25;;;3.90;;
40198;SDS011;25906;43.536;26.068;2022-09-09T13:53:52;5.45;;;3.80;;
40198;SDS011;25906;43.536;26.068;2022-09-09T13:56:38;10.85;;;3.78;;
40198;SDS011;25906;43.536;26.068;2022-09-09T13:59:24;4.45;;;3.25;;
40198;SDS011;25906;43.536;26.068;2022-09-09T14:02:10;5.10;;;3.70;;
40198;SDS011;25906;43.536;26.068;2022-09-09T14:04:56;6.97;;;3.50;;
40198;SDS011;25906;43.536;26.068;2022-09-09T14:07:42;4.65;;;3.85;;
40198;SDS011;25906;43.536;26.068;2022-09-09T14:10:28;5.70;;;4.60;;
40198;SDS011;25906;43.536;26.068;2022-09-09T14:13:14;10.93;;;5.25;;
40198;SDS011;25906;43.536;26.068;2022-09-09T14:16:00;4.68;;;3.92;;
40198;SDS011;25906;43.536;26.068;2022-09-09T14:18:46;13.70;;;4.18;;
40198;SDS011;25906;43.536;26.068;2022-09-09T14:21:31;5.50;;;4.10;;
40198;SDS011;25906;43.536;26.068;2022-09-09T14:24:17;6.43;;;3.92;;
40198;SDS011;25906;43.536;26.068;2022-09-09T14:27:03;4.03;;;3.63;;
40198;SDS011;25906;43.536;26.068;2022-09-09T14:32:33;11.30;;;4.28;;
40198;SDS011;25906;43.536;26.068;2022-09-09T14:35:19;9.93;;;4.13;;
40198;SDS011;25906;43.536;26.068;2022-09-09T14:38:04;8.15;;;3.90;;
40198;SDS011;25906;43.536;26.068;2022-09-09T14:43:37;8.10;;;4.32;;
40198;SDS011;25906;43.536;26.068;2022-09-09T14:46:23;6.70;;;4.13;;
40198;SDS011;25906;43.536;26.068;2022-09-09T14:49:09;7.60;;;4.05;;
40198;SDS011;25906;43.536;26.068;2022-09-09T14:51:55;7.22;;;4.75;;
40198;SDS011;25906;43.536;26.068;2022-09-09T14:54:40;4.72;;;3.65;;
40198;SDS011;25906;43.536;26.068;2022-09-09T15:00:11;3.92;;;3.40;;
40198;SDS011;25906;43.536;26.068;2022-09-09T15:02:58;14.25;;;4.28;;
40198;SDS011;25906;43.536;26.068;2022-09-09T15:08:30;24.75;;;12.13;;
40198;SDS011;25906;43.536;26.068;2022-09-09T15:11:16;14.90;;;8.45;;
40198;SDS011;25906;43.536;26.068;2022-09-09T15:16:47;11.63;;;6.53;;
40198;SDS011;25906;43.536;26.068;2022-09-09T15:22:18;9.03;;;4.57;;
40198;SDS011;25906;43.536;26.068;2022-09-09T15:25:04;7.95;;;4.35;;
40198;SDS011;25906;43.536;26.068;2022-09-09T15:27:50;9.60;;;4.47;;
40198;SDS011;25906;43.536;26.068;2022-09-09T15:33:22;13.98;;;4.57;;
40198;SDS011;25906;43.536;26.068;2022-09-09T15:36:15;8.30;;;4.93;;
40198;SDS011;25906;43.536;26.068;2022-09-09T15:39:10;11.68;;;5.05;;
40198;SDS011;25906;43.536;26.068;2022-09-09T15:42:00;11.18;;;5.45;;
40198;SDS011;25906;43.536;26.068;2022-09-09T15:44:46;13.07;;;5.43;;
40198;SDS011;25906;43.536;26.068;2022-09-09T15:47:32;9.10;;;4.50;;
40198;SDS011;25906;43.536;26.068;2022-09-09T15:50:18;9.43;;;5.10;;
40198;SDS011;25906;43.536;26.068;2022-09-09T15:53:03;9.75;;;4.82;;
40198;SDS011;25906;43.536;26.068;2022-09-09T15:55:53;22.88;;;6.43;;
40198;SDS011;25906;43.536;26.068;2022-09-09T15:58:40;9.18;;;4.97;;
40198;SDS011;25906;43.536;26.068;2022-09-09T16:01:29;7.78;;;4.47;;
40198;SDS011;25906;43.536;26.068;2022-09-09T16:04:15;7.05;;;4.15;;
40198;SDS011;25906;43.536;26.068;2022-09-09T16:07:08;8.70;;;4.30;;
40198;SDS011;25906;43.536;26.068;2022-09-09T16:09:53;8.43;;;4.60;;
40198;SDS011;25906;43.536;26.068;2022-09-09T16:12:39;10.88;;;4.60;;
40198;SDS011;25906;43.536;26.068;2022-09-09T16:15:25;6.38;;;4.90;;
40198;SDS011;25906;43.536;26.068;2022-09-09T16:20:56;7.78;;;4.10;;
40198;SDS011;25906;43.536;26.068;2022-09-09T16:23:41;7.22;;;4.20;;
40198;SDS011;25906;43.536;26.068;2022-09-09T16:29:13;13.43;;;5.05;;
40198;SDS011;25906;43.536;26.068;2022-09-09T16:32:00;10.32;;;5.68;;
40198;SDS011;25906;43.536;26.068;2022-09-09T16:37:31;7.00;;;5.30;;
40198;SDS011;25906;43.536;26.068;2022-09-09T16:40:18;9.43;;;5.43;;
40198;SDS011;25906;43.536;26.068;2022-09-09T16:45:50;15.85;;;5.70;;
40198;SDS011;25906;43.536;26.068;2022-09-09T16:48:36;8.05;;;4.18;;
40198;SDS011;25906;43.536;26.068;2022-09-09T16:54:11;5.18;;;3.85;;
40198;SDS011;25906;43.536;26.068;2022-09-09T16:56:58;7.45;;;3.97;;
40198;SDS011;25906;43.536;26.068;2022-09-09T16:59:44;5.63;;;4.07;;
40198;SDS011;25906;43.536;26.068;2022-09-09T17:02:30;9.23;;;4.50;;
40198;SDS011;25906;43.536;26.068;2022-09-09T17:05:16;7.30;;;3.92;;
40198;SDS011;25906;43.536;26.068;2022-09-09T17:08:02;8.10;;;4.22;;
40198;SDS011;25906;43.536;26.068;2022-09-09T17:10:47;7.68;;;4.28;;
40198;SDS011;25906;43.536;26.068;2022-09-09T17:13:32;6.40;;;3.88;;
40198;SDS011;25906;43.536;26.068;2022-09-09T17:16:19;8.57;;;4.10;;
40198;SDS011;25906;43.536;26.068;2022-09-09T17:19:08;6.13;;;4.32;;
40198;SDS011;25906;43.536;26.068;2022-09-09T17:21:55;5.03;;;3.67;;
40198;SDS011;25906;43.536;26.068;2022-09-09T17:24:41;7.03;;;4.00;;
40198;SDS011;25906;43.536;26.068;2022-09-09T17:27:28;9.88;;;3.75;;
40198;SDS011;25906;43.536;26.068;2022-09-09T17:30:16;12.50;;;4.53;;
40198;SDS011;25906;43.536;26.068;2022-09-09T17:33:02;9.30;;;4.18;;
40198;SDS011;25906;43.536;26.068;2022-09-09T17:35:49;14.05;;;6.63;;
40198;SDS011;25906;43.536;26.068;2022-09-09T17:38:34;22.05;;;5.15;;
40198;SDS011;25906;43.536;26.068;2022-09-09T17:41:21;7.15;;;5.20;;
40198;SDS011;25906;43.536;26.068;2022-09-09T17:44:08;8.65;;;5.65;;
40198;SDS011;25906;43.536;26.068;2022-09-09T17:46:54;7.80;;;5.95;;
40198;SDS011;25906;43.536;26.068;2022-09-09T17:49:40;8.93;;;5.38;;
40198;SDS011;25906;43.536;26.068;2022-09-09T17:52:25;7.03;;;5.18;;
40198;SDS011;25906;43.536;26.068;2022-09-09T17:55:11;8.43;;;4.65;;
40198;SDS011;25906;43.536;26.068;2022-09-09T17:57:57;10.23;;;4.38;;
40198;SDS011;25906;43.536;26.068;2022-09-09T18:00:44;11.40;;;4.03;;
40198;SDS011;25906;43.536;26.068;2022-09-09T18:03:29;10.05;;;4.32;;
40198;SDS011;25906;43.536;26.068;2022-09-09T18:06:23;7.30;;;4.57;;
40198;SDS011;25906;43.536;26.068;2022-09-09T18:09:20;9.98;;;4.25;;
40198;SDS011;25906;43.536;26.068;2022-09-09T18:12:07;6.32;;;4.15;;
40198;SDS011;25906;43.536;26.068;2022-09-09T18:14:53;8.43;;;4.40;;
40198;SDS011;25906;43.536;26.068;2022-09-09T18:17:38;7.63;;;4.53;;
40198;SDS011;25906;43.536;26.068;2022-09-09T18:20:24;7.05;;;4.18;;
40198;SDS011;25906;43.536;26.068;2022-09-09T18:23:10;7.10;;;4.38;;
40198;SDS011;25906;43.536;26.068;2022-09-09T18:25:55;4.93;;;4.18;;
40198;SDS011;25906;43.536;26.068;2022-09-09T18:28:46;7.15;;;4.38;;
40198;SDS011;25906;43.536;26.068;2022-09-09T18:31:33;8.77;;;4.60;;
40198;SDS011;25906;43.536;26.068;2022-09-09T18:34:20;16.50;;;4.57;;
40198;SDS011;25906;43.536;26.068;2022-09-09T18:37:07;9.43;;;3.90;;
40198;SDS011;25906;43.536;26.068;2022-09-09T18:39:54;9.05;;;4.43;;
40198;SDS011;25906;43.536;26.068;2022-09-09T18:42:39;6.72;;;3.88;;
40198;SDS011;25906;43.536;26.068;2022-09-09T18:45:25;10.60;;;4.40;;
40198;SDS011;25906;43.536;26.068;2022-09-09T18:48:10;9.07;;;4.72;;
40198;SDS011;25906;43.536;26.068;2022-09-09T18:51:00;13.75;;;5.10;;
40198;SDS011;25906;43.536;26.068;2022-09-09T18:53:57;9.50;;;4.22;;
40198;SDS011;25906;43.536;26.068;2022-09-09T18:56:45;9.02;;;4.65;;
40198;SDS011;25906;43.536;26.068;2022-09-09T18:59:31;8.20;;;4.57;;
40198;SDS011;25906;43.536;26.068;2022-09-09T19:02:16;11.77;;;4.53;;
40198;SDS011;25906;43.536;26.068;2022-09-09T19:05:02;4.35;;;3.63;;
40198;SDS011;25906;43.536;26.068;2022-09-09T19:07:48;7.15;;;4.45;;
40198;SDS011;25906;43.536;26.068;2022-09-09T19:10:36;8.65;;;4.38;;
40198;SDS011;25906;43.536;26.068;2022-09-09T19:13:22;6.30;;;4.88;;
40198;SDS011;25906;43.536;26.068;2022-09-09T19:16:09;10.38;;;5.00;;
40198;SDS011;25906;43.536;26.068;2022-09-09T19:19:01;8.95;;;4.22;;
40198;SDS011;25906;43.536;26.068;2022-09-09T19:21:50;6.95;;;4.45;;
40198;SDS011;25906;43.536;26.068;2022-09-09T19:24:36;4.53;;;4.03;;